Main page
METAR-TAF:

METAR-TAF

Airports :

Augusto C. Sandino International Airport

Managua, Nicaragua

latitude: 12-09N, longitude: 086-10W, elevation: 50 m

Current weather observation

The report was made 50 minutes ago, at 17:00 UTC
Wind 8 kt from the East
Temperature 31°C
Humidity 66%
Pressure 1011 hPa
Visibility 10 km or more
Few clouds at a height of 2200 ft
Scattered clouds at a height of 30000 ft

METAR: MNMG 221700Z 10008KT 9999 FEW022 SCT300 31/24 Q1013 A2984

Time: 11:50 (17:50 UTC)

Forecast

The report was made 14 hours and 22 minutes ago, at 03:28 UTC
Forecast valid from 22 at 06 UTC to 23 at 06 UTC
Wind 6 kt from the East
Visibility 10 km or more
Few clouds at a height of 2000 ft, Cumulonimbus.
Scattered clouds at a height of 30000 ft
Becoming
from 22 at 08 UTC to 22 at 12 UTC
Wind 4 kt from the Southeast
Few clouds at a height of 2000 ft
Scattered clouds at a height of 7000 ft

TAF: MNMG 220328Z 2206/2306 10006KT 9999 FEW020CB SCT300 BECMG 2208/2212 14004KT FEW020 SCT070

Weather observations and forecasts of more than 4000 airports (METAR and TAF reports).

The available stations are represented by yellow and red dots on the map.

Hover mouse over dot to see the name of the station.

Then click to see weather observations and forecasts.

To change the map : click on the green buttons with a black cross to zoom in, on the green button with a dash to zoom out, or on the green arrows for adjacent maps.


METAR-TAF: